createdAt,value
2022-12-20T00:08:27.000Z,6.5
2022-12-20T00:23:06.000Z,5.9
2022-12-20T00:37:44.000Z,5.7
2022-12-20T00:52:19.000Z,6.2
2022-12-20T01:06:58.000Z,6.8
2022-12-20T01:21:37.000Z,7.1
2022-12-20T01:36:13.000Z,7.1
2022-12-20T01:50:52.000Z,7.7
2022-12-20T02:05:30.000Z,7.3
2022-12-20T02:20:08.000Z,7
2022-12-20T02:34:47.000Z,6.5
2022-12-20T02:49:26.000Z,6.5
2022-12-20T03:04:04.000Z,6.4
2022-12-20T03:18:42.000Z,5.4
2022-12-20T03:33:21.000Z,5.7
2022-12-20T03:48:01.000Z,5
2022-12-20T04:02:38.000Z,4.7
2022-12-20T04:17:09.000Z,4.6
2022-12-20T04:31:48.000Z,4.5
2022-12-20T04:46:20.000Z,4.1
2022-12-20T05:00:57.000Z,3.8
2022-12-20T05:15:36.000Z,4.3
2022-12-20T05:30:15.000Z,4.2
2022-12-20T05:44:47.000Z,4.4
2022-12-20T05:59:23.000Z,4.8
2022-12-20T06:14:00.000Z,4.6
2022-12-20T06:28:30.000Z,4.8
2022-12-20T06:43:08.000Z,5.4
2022-12-20T06:57:47.000Z,5.4
2022-12-20T07:12:26.000Z,5.4
2022-12-20T07:26:56.000Z,5.6
2022-12-20T07:41:36.000Z,5.6
2022-12-20T07:56:15.000Z,4.4
2022-12-20T08:10:48.000Z,3.4
2022-12-20T08:25:27.000Z,3.6
2022-12-20T08:40:06.000Z,3.5
2022-12-20T08:54:46.000Z,3.8
2022-12-20T09:09:20.000Z,3.2
2022-12-20T09:23:59.000Z,2.9
2022-12-20T09:38:37.000Z,2.3
2022-12-20T09:53:13.000Z,2.1
2022-12-20T10:07:52.000Z,1.5
2022-12-20T10:22:36.000Z,1.6
2022-12-20T10:37:09.000Z,4.6
2022-12-20T10:51:48.000Z,2.8
2022-12-20T11:06:25.000Z,1.3
2022-12-20T11:21:04.000Z,1.2
2022-12-20T11:35:43.000Z,1.3
2022-12-20T11:50:22.000Z,1.3
2022-12-20T12:05:02.000Z,1.6
2022-12-20T12:19:41.000Z,1.5
2022-12-20T12:34:20.000Z,1.3
2022-12-20T12:48:59.000Z,1.5
2022-12-20T13:03:39.000Z,1.2
2022-12-20T13:18:18.000Z,1.4
2022-12-20T13:32:57.000Z,2.7
2022-12-20T13:47:34.000Z,6.2
2022-12-20T14:02:12.000Z,3.1
2022-12-20T14:16:51.000Z,1.3
2022-12-20T14:31:31.000Z,2.9
2022-12-20T14:46:09.000Z,1.8
2022-12-20T15:00:48.000Z,1.5
2022-12-20T15:15:26.000Z,1.7
2022-12-20T15:30:02.000Z,1.4
2022-12-20T15:44:34.000Z,1.5
2022-12-20T15:59:09.000Z,1.6
2022-12-20T16:13:48.000Z,1.6
2022-12-20T16:28:27.000Z,2.5
2022-12-20T16:42:59.000Z,2.2
2022-12-20T16:57:37.000Z,1.9
2022-12-20T17:12:16.000Z,1.7
2022-12-20T17:26:55.000Z,1.7
2022-12-20T17:41:34.000Z,1.5
2022-12-20T17:56:13.000Z,1.9
2022-12-20T18:10:51.000Z,4.6
2022-12-20T18:25:29.000Z,2
2022-12-20T18:40:07.000Z,3
2022-12-20T18:54:45.000Z,4.1
2022-12-20T19:09:23.000Z,4.2
2022-12-20T19:24:04.000Z,2
2022-12-20T19:38:35.000Z,2.3
2022-12-20T19:53:11.000Z,2.5
2022-12-20T20:07:50.000Z,2.6
2022-12-20T20:22:23.000Z,2.3
2022-12-20T20:37:01.000Z,2.8
2022-12-20T20:51:38.000Z,3.2
2022-12-20T21:06:17.000Z,2.9
2022-12-20T21:20:55.000Z,3.3
2022-12-20T21:35:35.000Z,2.3
2022-12-20T21:50:14.000Z,4.8
2022-12-20T22:04:52.000Z,2.4
2022-12-20T22:19:30.000Z,2.3
2022-12-20T22:34:08.000Z,3.1
2022-12-20T22:48:46.000Z,2.4
2022-12-20T23:03:25.000Z,2.1
2022-12-20T23:17:57.000Z,2.3
2022-12-20T23:32:36.000Z,1.6
2022-12-20T23:47:14.000Z,1.6
